Terminal Aerodrome Forecast
Issued by NWS Grand Forks, ND

Home | Current Version | Previous Version | Text Only | Print | Product List | Glossary Off
Versions: 1 2 3 4 5 6 7 8 9 10 11 12 13 14 15 16 17

501
FTUS43 KFGF 282320
TAFGFK
TAF
KGFK 282320Z 2900/2924 03007KT P6SM -RA OVC060
     FM290400 01005KT P6SM BKN050
     FM290600 34004KT P6SM BKN015
     FM291600 30012KT P6SM FEW200=

USA.gov is the U.S. government's official web portal to all federal, state and local government web resources and services.